createdAt,value
2022-11-14T00:00:45.583Z,7.30
2022-11-14T00:06:07.210Z,7.20
2022-11-14T00:11:27.449Z,7.20
2022-11-14T00:16:48.290Z,7.20
2022-11-14T00:22:08.816Z,7.20
2022-11-14T00:27:28.977Z,7.10
2022-11-14T00:32:49.356Z,7.10
2022-11-14T00:38:09.665Z,7.10
2022-11-14T00:43:30.298Z,7.20
2022-11-14T00:48:50.452Z,7.20
2022-11-14T00:54:10.991Z,7.10
2022-11-14T00:59:31.333Z,7.00
2022-11-14T01:04:52.606Z,7.00
2022-11-14T01:10:12.721Z,6.90
2022-11-14T01:15:33.261Z,6.90
2022-11-14T01:20:53.741Z,6.80
2022-11-14T01:26:14.740Z,6.80
2022-11-14T01:31:35.201Z,6.80
2022-11-14T01:36:55.702Z,6.70
2022-11-14T01:42:17.592Z,6.60
2022-11-14T01:47:38.424Z,6.60
2022-11-14T01:52:58.925Z,6.60
2022-11-14T01:58:19.977Z,6.50
2022-11-14T02:03:44.168Z,6.60
2022-11-14T02:09:06.567Z,6.50
2022-11-14T02:14:28.118Z,6.60
2022-11-14T02:20:04.805Z,6.70
2022-11-14T02:25:25.852Z,6.70
2022-11-14T02:30:46.080Z,6.80
2022-11-14T02:36:07.080Z,6.80
2022-11-14T02:41:27.608Z,6.90
2022-11-14T02:46:48.036Z,6.90
2022-11-14T02:52:08.525Z,6.90
2022-11-14T02:57:28.857Z,7.00
2022-11-14T03:02:49.329Z,6.90
2022-11-14T03:08:09.787Z,6.90
2022-11-14T03:13:30.293Z,6.90
2022-11-14T03:18:50.496Z,7.00
2022-11-14T03:24:10.929Z,6.90
2022-11-14T03:29:31.624Z,7.00
2022-11-14T03:34:51.818Z,7.00
2022-11-14T03:40:12.763Z,7.00
2022-11-14T03:45:33.589Z,7.00
2022-11-14T03:50:53.839Z,6.90
2022-11-14T03:56:14.587Z,6.90
2022-11-14T04:01:34.880Z,6.80
2022-11-14T04:06:55.519Z,6.80
2022-11-14T04:12:16.157Z,6.70
2022-11-14T04:17:39.838Z,6.70
2022-11-14T04:23:01.935Z,6.60
2022-11-14T04:28:22.450Z,6.60
2022-11-14T04:33:42.984Z,6.50
2022-11-14T04:39:03.895Z,6.40
2022-11-14T04:44:24.485Z,6.50
2022-11-14T04:49:44.802Z,6.40
2022-11-14T04:55:05.475Z,6.60
2022-11-14T05:00:25.980Z,6.60
2022-11-14T05:05:46.544Z,6.70
2022-11-14T05:11:06.793Z,6.70
2022-11-14T05:16:27.227Z,6.80
2022-11-14T05:21:47.689Z,6.70
2022-11-14T05:27:09.270Z,6.70
2022-11-14T05:32:29.722Z,6.70
2022-11-14T05:37:50.270Z,6.60
2022-11-14T05:43:10.624Z,6.70
2022-11-14T05:48:32.140Z,6.70
2022-11-14T05:53:52.940Z,6.80
2022-11-14T05:59:13.328Z,6.80
2022-11-14T06:04:33.816Z,6.80
2022-11-14T06:09:54.210Z,6.80
2022-11-14T06:15:14.682Z,6.90
2022-11-14T06:20:35.947Z,6.90
2022-11-14T06:26:01.023Z,6.80
2022-11-14T06:31:21.828Z,6.70
2022-11-14T06:36:42.076Z,6.80
2022-11-14T06:42:02.653Z,6.80
2022-11-14T06:47:22.901Z,6.70
2022-11-14T06:52:43.284Z,6.80
2022-11-14T06:58:03.641Z,6.80
2022-11-14T07:03:24.253Z,6.80
2022-11-14T07:08:44.781Z,6.80
2022-11-14T07:14:06.755Z,6.70
2022-11-14T07:19:26.760Z,6.70
2022-11-14T07:24:47.241Z,6.90
2022-11-14T07:30:08.085Z,6.90
2022-11-14T07:35:28.569Z,7.00
2022-11-14T07:40:59.499Z,6.80
2022-11-14T07:46:20.275Z,6.70
2022-11-14T07:51:40.898Z,6.60
2022-11-14T07:57:01.251Z,6.60
2022-11-14T08:02:21.502Z,6.80
2022-11-14T08:07:41.981Z,6.90
2022-11-14T08:13:30.146Z,7.00
2022-11-14T08:18:45.990Z,6.90
2022-11-14T08:24:06.634Z,7.10
2022-11-14T08:29:26.683Z,7.20
2022-11-14T08:34:47.087Z,6.90
2022-11-14T08:40:07.854Z,7.10
2022-11-14T08:45:29.980Z,7.20
2022-11-14T08:50:50.400Z,7.10
2022-11-14T08:56:11.590Z,7.10
2022-11-14T09:01:34.601Z,7.20
2022-11-14T09:06:54.877Z,7.40
2022-11-14T09:12:15.495Z,7.30
2022-11-14T09:17:35.708Z,7.40
2022-11-14T09:23:00.636Z,7.60
2022-11-14T09:28:20.888Z,7.80
2022-11-14T09:33:41.876Z,8.00
2022-11-14T09:39:02.196Z,8.10
2022-11-14T09:44:41.358Z,8.30
2022-11-14T09:50:21.813Z,8.40
2022-11-14T09:55:45.083Z,8.50
2022-11-14T10:01:28.340Z,8.50
2022-11-14T10:07:09.031Z,8.40
2022-11-14T10:12:51.165Z,8.60
2022-11-14T10:18:23.235Z,8.50
2022-11-14T10:23:55.557Z,8.50
2022-11-14T10:29:38.790Z,8.60
2022-11-14T10:35:29.779Z,8.60
2022-11-14T10:41:04.607Z,8.80
2022-11-14T10:46:28.815Z,8.80
2022-11-14T10:51:59.620Z,8.90
2022-11-14T10:57:22.012Z,9.40
2022-11-14T11:02:54.610Z,9.50
2022-11-14T11:08:44.153Z,9.60
2022-11-14T11:14:04.773Z,9.40
2022-11-14T11:19:26.619Z,9.40
2022-11-14T11:24:46.625Z,9.40
2022-11-14T11:30:23.312Z,9.50
2022-11-14T11:35:45.968Z,9.40
2022-11-14T11:41:33.157Z,9.50
2022-11-14T11:47:01.311Z,9.60
2022-11-14T11:52:27.589Z,9.50
2022-11-14T11:58:04.157Z,9.60
2022-11-14T12:03:26.491Z,9.90
2022-11-14T12:08:58.719Z,9.90
2022-11-14T12:14:27.882Z,10.10
2022-11-14T12:20:07.265Z,10.10
2022-11-14T12:25:58.467Z,10.30
2022-11-14T12:31:19.338Z,10.40
2022-11-14T12:36:43.122Z,10.60
2022-11-14T12:42:05.906Z,10.70
2022-11-14T12:47:28.623Z,10.80
2022-11-14T12:52:54.743Z,10.90
2022-11-14T12:58:50.247Z,11.20
2022-11-14T13:04:20.199Z,11.40
2022-11-14T13:10:02.391Z,11.60
2022-11-14T13:16:08.008Z,11.80
2022-11-14T13:21:48.572Z,12.00
2022-11-14T13:27:52.204Z,12.20
2022-11-14T13:33:08.763Z,12.40
2022-11-14T13:39:05.195Z,12.50
2022-11-14T13:44:43.220Z,12.30
2022-11-14T13:50:11.157Z,11.90
2022-11-14T13:55:37.368Z,11.70
2022-11-14T14:01:25.556Z,11.70
2022-11-14T14:07:04.348Z,11.50
2022-11-14T14:12:41.262Z,11.40
2022-11-14T14:18:20.339Z,11.30
2022-11-14T14:24:04.639Z,11.30
2022-11-14T14:29:32.328Z,11.20
2022-11-14T14:34:56.952Z,11.20
2022-11-14T14:40:35.870Z,11.10
2022-11-14T14:45:56.089Z,11.00
2022-11-14T14:51:33.882Z,10.90
2022-11-14T14:57:03.418Z,10.80
2022-11-14T15:02:25.743Z,10.60
2022-11-14T15:07:46.533Z,10.60
2022-11-14T15:13:08.401Z,10.40
2022-11-14T15:18:32.267Z,10.10
2022-11-14T15:24:19.122Z,10.00
2022-11-14T15:30:06.704Z,9.90
2022-11-14T15:35:38.554Z,9.80
2022-11-14T15:41:18.025Z,9.60
2022-11-14T15:46:41.120Z,9.50
2022-11-14T15:52:02.881Z,9.50
2022-11-14T15:57:23.628Z,9.40
2022-11-14T16:02:49.869Z,9.30
2022-11-14T16:08:13.810Z,9.10
2022-11-14T16:13:34.362Z,9.00
2022-11-14T16:18:54.613Z,9.00
2022-11-14T16:24:21.589Z,8.90
2022-11-14T16:29:42.055Z,8.90
2022-11-14T16:35:02.399Z,8.90
2022-11-14T16:40:28.238Z,8.80
2022-11-14T16:45:48.377Z,8.80
2022-11-14T16:51:32.959Z,8.70
2022-11-14T16:56:49.845Z,8.70
2022-11-14T17:02:15.889Z,8.60
2022-11-14T17:07:36.254Z,8.60
2022-11-14T17:12:56.676Z,8.50
2022-11-14T17:18:18.121Z,8.40
2022-11-14T17:23:39.212Z,8.40
2022-11-14T17:28:59.488Z,8.30
2022-11-14T17:34:19.903Z,8.30
2022-11-14T17:39:40.307Z,8.20
2022-11-14T17:45:01.071Z,8.20
2022-11-14T17:50:21.347Z,8.10
2022-11-14T17:55:41.932Z,8.10
2022-11-14T18:01:02.399Z,8.00
2022-11-14T18:06:24.289Z,8.00
2022-11-14T18:11:44.509Z,7.90
2022-11-14T18:17:12.712Z,7.90
2022-11-14T18:22:33.624Z,7.90
2022-11-14T18:27:55.047Z,7.80
2022-11-14T18:33:16.025Z,7.80
2022-11-14T18:38:36.586Z,7.80
2022-11-14T18:43:58.013Z,7.70
2022-11-14T18:49:18.142Z,7.70
2022-11-14T18:54:39.093Z,7.70
2022-11-14T18:59:59.421Z,7.60
2022-11-14T19:05:20.042Z,7.60
2022-11-14T19:10:40.433Z,7.50
2022-11-14T19:16:02.699Z,7.50
2022-11-14T19:21:22.949Z,7.40
2022-11-14T19:26:43.522Z,7.40
2022-11-14T19:32:04.189Z,7.30
2022-11-14T19:37:24.625Z,7.30
2022-11-14T19:42:45.348Z,7.30
2022-11-14T19:48:06.076Z,7.20
2022-11-14T19:53:26.565Z,7.20
2022-11-14T19:58:48.617Z,7.10
2022-11-14T20:04:12.305Z,7.10
2022-11-14T20:09:32.409Z,7.10
2022-11-14T20:14:52.930Z,7.00
2022-11-14T20:20:13.459Z,7.00
2022-11-14T20:25:36.053Z,6.90
2022-11-14T20:31:04.571Z,6.90
2022-11-14T20:36:32.056Z,6.80
2022-11-14T20:41:55.634Z,6.80
2022-11-14T20:47:17.404Z,6.80
2022-11-14T20:52:38.285Z,6.80
2022-11-14T20:57:58.487Z,6.80
2022-11-14T21:03:20.316Z,6.80
2022-11-14T21:08:41.848Z,6.80
2022-11-14T21:14:04.243Z,6.70
2022-11-14T21:19:24.413Z,6.70
2022-11-14T21:24:44.725Z,6.60
2022-11-14T21:30:05.736Z,6.50
2022-11-14T21:35:29.995Z,6.60
2022-11-14T21:40:54.314Z,6.60
2022-11-14T21:46:17.536Z,6.50
2022-11-14T21:51:37.698Z,6.40
2022-11-14T21:56:58.284Z,6.50
2022-11-14T22:02:37.344Z,6.40
2022-11-14T22:07:57.944Z,6.30
2022-11-14T22:13:18.509Z,6.20
2022-11-14T22:18:39.016Z,6.30
2022-11-14T22:23:59.108Z,6.20
2022-11-14T22:29:19.530Z,6.20
2022-11-14T22:34:39.985Z,6.20
2022-11-14T22:40:00.163Z,6.10
2022-11-14T22:45:20.529Z,6.20
2022-11-14T22:50:40.817Z,6.20
2022-11-14T22:56:02.774Z,6.30
2022-11-14T23:01:32.684Z,6.30
2022-11-14T23:06:52.886Z,6.30
2022-11-14T23:12:13.395Z,6.30
2022-11-14T23:17:33.708Z,6.20
2022-11-14T23:22:54.306Z,6.10
2022-11-14T23:28:14.497Z,6.00
2022-11-14T23:33:35.408Z,6.00
2022-11-14T23:38:56.087Z,5.90
2022-11-14T23:44:16.500Z,6.00
2022-11-14T23:49:37.021Z,6.10
2022-11-14T23:54:57.679Z,6.10
